sensor_id;sensor_type;location;lat;lon;timestamp;P1;durP1;ratioP1;P2;durP2;ratioP2
40489;SDS011;26196;52.302;10.572;2022-09-09T00:03:19;0.30;;;0.30;;
40489;SDS011;26196;52.302;10.572;2022-09-09T00:07:34;0.40;;;0.38;;
40489;SDS011;26196;52.302;10.572;2022-09-09T00:11:48;0.88;;;0.70;;
40489;SDS011;26196;52.302;10.572;2022-09-09T00:16:02;0.88;;;0.40;;
40489;SDS011;26196;52.302;10.572;2022-09-09T00:20:21;1.17;;;0.40;;
40489;SDS011;26196;52.302;10.572;2022-09-09T00:24:32;0.40;;;0.40;;
40489;SDS011;26196;52.302;10.572;2022-09-09T00:28:46;0.60;;;0.45;;
40489;SDS011;26196;52.302;10.572;2022-09-09T00:32:59;0.52;;;0.40;;
40489;SDS011;26196;52.302;10.572;2022-09-09T00:37:01;0.88;;;0.38;;
40489;SDS011;26196;52.302;10.572;2022-09-09T00:41:11;1.70;;;0.28;;
40489;SDS011;26196;52.302;10.572;2022-09-09T00:45:19;0.30;;;0.25;;
40489;SDS011;26196;52.302;10.572;2022-09-09T00:49:47;0.68;;;0.30;;
40489;SDS011;26196;52.302;10.572;2022-09-09T00:54:10;0.77;;;0.30;;
40489;SDS011;26196;52.302;10.572;2022-09-09T00:58:21;0.55;;;0.40;;
40489;SDS011;26196;52.302;10.572;2022-09-09T01:06:56;0.75;;;0.52;;
40489;SDS011;26196;52.302;10.572;2022-09-09T01:11:03;0.52;;;0.22;;
40489;SDS011;26196;52.302;10.572;2022-09-09T01:15:15;0.40;;;0.40;;
40489;SDS011;26196;52.302;10.572;2022-09-09T01:19:27;0.93;;;0.40;;
40489;SDS011;26196;52.302;10.572;2022-09-09T01:28:14;0.35;;;0.20;;
40489;SDS011;26196;52.302;10.572;2022-09-09T01:36:47;0.60;;;0.30;;
40489;SDS011;26196;52.302;10.572;2022-09-09T01:40:59;0.93;;;0.40;;
40489;SDS011;26196;52.302;10.572;2022-09-09T01:45:01;0.45;;;0.20;;
40489;SDS011;26196;52.302;10.572;2022-09-09T01:49:02;0.30;;;0.20;;
40489;SDS011;26196;52.302;10.572;2022-09-09T01:53:05;0.25;;;0.20;;
40489;SDS011;26196;52.302;10.572;2022-09-09T02:01:43;0.75;;;0.35;;
40489;SDS011;26196;52.302;10.572;2022-09-09T02:05:52;0.30;;;0.20;;
40489;SDS011;26196;52.302;10.572;2022-09-09T02:10:00;1.77;;;0.55;;
40489;SDS011;26196;52.302;10.572;2022-09-09T02:14:16;0.55;;;0.38;;
40489;SDS011;26196;52.302;10.572;2022-09-09T02:18:25;0.55;;;0.20;;
40489;SDS011;26196;52.302;10.572;2022-09-09T02:22:30;0.30;;;0.20;;
40489;SDS011;26196;52.302;10.572;2022-09-09T02:26:34;0.60;;;0.40;;
40489;SDS011;26196;52.302;10.572;2022-09-09T02:30:40;0.40;;;0.20;;
40489;SDS011;26196;52.302;10.572;2022-09-09T02:34:51;0.30;;;0.30;;
40489;SDS011;26196;52.302;10.572;2022-09-09T02:38:56;0.30;;;0.17;;
40489;SDS011;26196;52.302;10.572;2022-09-09T02:42:57;0.40;;;0.20;;
40489;SDS011;26196;52.302;10.572;2022-09-09T02:51:23;0.50;;;0.20;;
40489;SDS011;26196;52.302;10.572;2022-09-09T02:59:48;0.20;;;0.20;;
40489;SDS011;26196;52.302;10.572;2022-09-09T03:03:50;0.57;;;0.30;;
40489;SDS011;26196;52.302;10.572;2022-09-09T03:07:50;0.40;;;0.20;;
40489;SDS011;26196;52.302;10.572;2022-09-09T03:11:51;2.33;;;0.32;;
40489;SDS011;26196;52.302;10.572;2022-09-09T03:15:52;0.82;;;0.28;;
40489;SDS011;26196;52.302;10.572;2022-09-09T03:19:52;5.88;;;0.73;;
40489;SDS011;26196;52.302;10.572;2022-09-09T03:23:54;10.43;;;1.90;;
40489;SDS011;26196;52.302;10.572;2022-09-09T03:27:55;5.50;;;0.80;;
40489;SDS011;26196;52.302;10.572;2022-09-09T03:31:56;4.80;;;0.90;;
40489;SDS011;26196;52.302;10.572;2022-09-09T03:35:57;6.10;;;0.93;;
40489;SDS011;26196;52.302;10.572;2022-09-09T03:39:57;8.55;;;1.40;;
40489;SDS011;26196;52.302;10.572;2022-09-09T03:43:59;21.50;;;3.05;;
40489;SDS011;26196;52.302;10.572;2022-09-09T03:47:59;33.33;;;2.95;;
40489;SDS011;26196;52.302;10.572;2022-09-09T03:52:00;30.65;;;2.22;;
40489;SDS011;26196;52.302;10.572;2022-09-09T03:56:01;27.08;;;3.00;;
40489;SDS011;26196;52.302;10.572;2022-09-09T04:00:05;9.38;;;1.40;;
40489;SDS011;26196;52.302;10.572;2022-09-09T04:04:07;5.93;;;1.10;;
40489;SDS011;26196;52.302;10.572;2022-09-09T04:08:08;8.23;;;1.30;;
40489;SDS011;26196;52.302;10.572;2022-09-09T04:12:09;5.45;;;0.82;;
40489;SDS011;26196;52.302;10.572;2022-09-09T04:16:13;5.70;;;0.60;;
40489;SDS011;26196;52.302;10.572;2022-09-09T04:20:14;1.73;;;0.60;;
40489;SDS011;26196;52.302;10.572;2022-09-09T04:24:15;6.75;;;0.70;;
40489;SDS011;26196;52.302;10.572;2022-09-09T04:28:16;6.18;;;1.02;;
40489;SDS011;26196;52.302;10.572;2022-09-09T04:32:18;6.65;;;0.68;;
40489;SDS011;26196;52.302;10.572;2022-09-09T04:36:18;9.88;;;0.80;;
40489;SDS011;26196;52.302;10.572;2022-09-09T04:40:19;3.75;;;0.65;;
40489;SDS011;26196;52.302;10.572;2022-09-09T04:44:22;11.55;;;1.20;;
40489;SDS011;26196;52.302;10.572;2022-09-09T04:48:22;6.40;;;0.90;;
40489;SDS011;26196;52.302;10.572;2022-09-09T04:52:24;5.13;;;0.43;;
40489;SDS011;26196;52.302;10.572;2022-09-09T04:56:24;4.07;;;0.65;;
40489;SDS011;26196;52.302;10.572;2022-09-09T05:00:28;2.33;;;0.47;;
40489;SDS011;26196;52.302;10.572;2022-09-09T05:04:28;3.38;;;0.47;;
40489;SDS011;26196;52.302;10.572;2022-09-09T05:08:29;2.05;;;0.40;;
40489;SDS011;26196;52.302;10.572;2022-09-09T05:12:29;2.08;;;0.60;;
40489;SDS011;26196;52.302;10.572;2022-09-09T05:16:30;4.43;;;0.68;;
40489;SDS011;26196;52.302;10.572;2022-09-09T05:20:30;3.78;;;0.70;;
40489;SDS011;26196;52.302;10.572;2022-09-09T05:24:31;0.93;;;0.30;;
40489;SDS011;26196;52.302;10.572;2022-09-09T05:28:36;1.95;;;0.50;;
40489;SDS011;26196;52.302;10.572;2022-09-09T05:32:36;0.82;;;0.47;;
40489;SDS011;26196;52.302;10.572;2022-09-09T05:36:37;1.13;;;0.30;;
40489;SDS011;26196;52.302;10.572;2022-09-09T05:40:37;0.93;;;0.38;;
40489;SDS011;26196;52.302;10.572;2022-09-09T05:44:37;3.17;;;0.40;;
40489;SDS011;26196;52.302;10.572;2022-09-09T05:48:39;3.60;;;0.70;;
40489;SDS011;26196;52.302;10.572;2022-09-09T05:52:40;2.13;;;0.40;;
40489;SDS011;26196;52.302;10.572;2022-09-09T05:56:41;2.03;;;0.30;;
40489;SDS011;26196;52.302;10.572;2022-09-09T06:00:42;1.95;;;0.30;;
40489;SDS011;26196;52.302;10.572;2022-09-09T06:04:44;6.18;;;0.60;;
40489;SDS011;26196;52.302;10.572;2022-09-09T06:08:44;2.97;;;0.50;;
40489;SDS011;26196;52.302;10.572;2022-09-09T06:12:45;4.05;;;0.75;;
40489;SDS011;26196;52.302;10.572;2022-09-09T06:16:45;2.88;;;0.40;;
40489;SDS011;26196;52.302;10.572;2022-09-09T06:20:59;2.65;;;0.20;;
40489;SDS011;26196;52.302;10.572;2022-09-09T06:25:00;0.80;;;0.20;;
40489;SDS011;26196;52.302;10.572;2022-09-09T06:29:01;0.47;;;0.25;;
40489;SDS011;26196;52.302;10.572;2022-09-09T06:33:03;1.88;;;0.30;;
40489;SDS011;26196;52.302;10.572;2022-09-09T06:37:04;0.32;;;0.10;;
40489;SDS011;26196;52.302;10.572;2022-09-09T06:41:06;0.80;;;0.40;;
40489;SDS011;26196;52.302;10.572;2022-09-09T06:45:12;1.55;;;0.30;;
40489;SDS011;26196;52.302;10.572;2022-09-09T06:49:12;0.35;;;0.20;;
40489;SDS011;26196;52.302;10.572;2022-09-09T06:53:15;1.00;;;0.30;;
40489;SDS011;26196;52.302;10.572;2022-09-09T06:57:16;1.23;;;0.20;;
40489;SDS011;26196;52.302;10.572;2022-09-09T07:01:17;0.52;;;0.30;;
40489;SDS011;26196;52.302;10.572;2022-09-09T07:05:20;0.30;;;0.20;;
40489;SDS011;26196;52.302;10.572;2022-09-09T07:09:21;1.05;;;0.40;;
40489;SDS011;26196;52.302;10.572;2022-09-09T07:13:25;0.75;;;0.30;;
40489;SDS011;26196;52.302;10.572;2022-09-09T07:17:26;0.10;;;0.10;;
40489;SDS011;26196;52.302;10.572;2022-09-09T07:21:28;1.27;;;0.28;;
40489;SDS011;26196;52.302;10.572;2022-09-09T07:25:30;1.00;;;0.20;;
40489;SDS011;26196;52.302;10.572;2022-09-09T07:29:30;1.23;;;0.32;;
40489;SDS011;26196;52.302;10.572;2022-09-09T07:33:32;2.85;;;0.38;;
40489;SDS011;26196;52.302;10.572;2022-09-09T07:37:35;2.38;;;0.63;;
40489;SDS011;26196;52.302;10.572;2022-09-09T07:41:38;0.30;;;0.20;;
40489;SDS011;26196;52.302;10.572;2022-09-09T07:45:41;0.63;;;0.20;;
40489;SDS011;26196;52.302;10.572;2022-09-09T07:49:42;0.70;;;0.30;;
40489;SDS011;26196;52.302;10.572;2022-09-09T07:53:42;0.80;;;0.38;;
40489;SDS011;26196;52.302;10.572;2022-09-09T07:57:43;0.63;;;0.30;;
40489;SDS011;26196;52.302;10.572;2022-09-09T08:01:47;0.85;;;0.30;;
40489;SDS011;26196;52.302;10.572;2022-09-09T08:05:50;1.67;;;0.70;;
40489;SDS011;26196;52.302;10.572;2022-09-09T08:09:51;0.63;;;0.30;;
40489;SDS011;26196;52.302;10.572;2022-09-09T08:13:52;0.85;;;0.20;;
40489;SDS011;26196;52.302;10.572;2022-09-09T08:17:52;0.52;;;0.40;;
40489;SDS011;26196;52.302;10.572;2022-09-09T08:21:53;0.68;;;0.28;;
40489;SDS011;26196;52.302;10.572;2022-09-09T08:25:54;0.85;;;0.30;;
40489;SDS011;26196;52.302;10.572;2022-09-09T08:29:54;0.55;;;0.30;;
40489;SDS011;26196;52.302;10.572;2022-09-09T08:33:56;0.40;;;0.20;;
40489;SDS011;26196;52.302;10.572;2022-09-09T08:37:59;0.63;;;0.20;;
40489;SDS011;26196;52.302;10.572;2022-09-09T08:46:07;1.08;;;0.30;;
40489;SDS011;26196;52.302;10.572;2022-09-09T08:50:25;1.52;;;0.30;;
40489;SDS011;26196;52.302;10.572;2022-09-09T08:54:30;1.38;;;0.40;;
40489;SDS011;26196;52.302;10.572;2022-09-09T08:58:38;0.25;;;0.20;;
40489;SDS011;26196;52.302;10.572;2022-09-09T09:11:39;1.48;;;0.32;;
40489;SDS011;26196;52.302;10.572;2022-09-09T09:15:44;0.50;;;0.50;;
40489;SDS011;26196;52.302;10.572;2022-09-09T09:19:48;0.28;;;0.22;;
40489;SDS011;26196;52.302;10.572;2022-09-09T09:23:56;1.67;;;0.25;;
40489;SDS011;26196;52.302;10.572;2022-09-09T09:28:17;1.25;;;0.40;;
40489;SDS011;26196;52.302;10.572;2022-09-09T09:32:23;0.50;;;0.30;;
40489;SDS011;26196;52.302;10.572;2022-09-09T09:36:40;0.30;;;0.20;;
40489;SDS011;26196;52.302;10.572;2022-09-09T09:40:48;1.17;;;0.35;;
40489;SDS011;26196;52.302;10.572;2022-09-09T09:44:50;0.88;;;0.30;;
40489;SDS011;26196;52.302;10.572;2022-09-09T09:49:01;0.20;;;0.20;;
40489;SDS011;26196;52.302;10.572;2022-09-09T09:53:05;1.38;;;0.30;;
40489;SDS011;26196;52.302;10.572;2022-09-09T09:57:22;1.27;;;0.32;;
40489;SDS011;26196;52.302;10.572;2022-09-09T10:01:30;1.55;;;0.30;;
40489;SDS011;26196;52.302;10.572;2022-09-09T10:05:35;0.60;;;0.20;;
40489;SDS011;26196;52.302;10.572;2022-09-09T10:09:36;0.90;;;0.40;;
40489;SDS011;26196;52.302;10.572;2022-09-09T10:39:16;0.30;;;0.10;;
40489;SDS011;26196;52.302;10.572;2022-09-09T10:52:30;1.00;;;0.30;;
40489;SDS011;26196;52.302;10.572;2022-09-09T10:56:41;2.75;;;0.30;;
40489;SDS011;26196;52.302;10.572;2022-09-09T11:00:52;0.68;;;0.32;;
40489;SDS011;26196;52.302;10.572;2022-09-09T11:05:08;1.02;;;0.30;;
40489;SDS011;26196;52.302;10.572;2022-09-09T11:09:16;1.30;;;0.70;;
40489;SDS011;26196;52.302;10.572;2022-09-09T11:17:42;0.43;;;0.20;;
40489;SDS011;26196;52.302;10.572;2022-09-09T11:21:47;1.30;;;0.35;;
40489;SDS011;26196;52.302;10.572;2022-09-09T11:25:56;0.73;;;0.30;;
40489;SDS011;26196;52.302;10.572;2022-09-09T11:30:19;0.95;;;0.47;;
40489;SDS011;26196;52.302;10.572;2022-09-09T11:38:47;5.13;;;0.70;;
40489;SDS011;26196;52.302;10.572;2022-09-09T11:43:01;2.83;;;0.88;;
40489;SDS011;26196;52.302;10.572;2022-09-09T11:51:31;1.20;;;0.68;;
40489;SDS011;26196;52.302;10.572;2022-09-09T11:55:34;2.60;;;0.60;;
40489;SDS011;26196;52.302;10.572;2022-09-09T11:59:36;3.83;;;0.65;;
40489;SDS011;26196;52.302;10.572;2022-09-09T12:03:45;3.90;;;0.52;;
40489;SDS011;26196;52.302;10.572;2022-09-09T12:07:52;2.47;;;0.90;;
40489;SDS011;26196;52.302;10.572;2022-09-09T12:16:29;3.45;;;0.70;;
40489;SDS011;26196;52.302;10.572;2022-09-09T12:20:35;2.28;;;0.80;;
40489;SDS011;26196;52.302;10.572;2022-09-09T12:24:40;12.98;;;4.82;;
40489;SDS011;26196;52.302;10.572;2022-09-09T12:33:01;11.95;;;5.13;;
40489;SDS011;26196;52.302;10.572;2022-09-09T12:41:33;12.35;;;7.07;;
40489;SDS011;26196;52.302;10.572;2022-09-09T12:45:34;18.23;;;7.78;;
40489;SDS011;26196;52.302;10.572;2022-09-09T12:49:36;17.67;;;7.90;;
40489;SDS011;26196;52.302;10.572;2022-09-09T12:53:39;13.00;;;6.38;;
40489;SDS011;26196;52.302;10.572;2022-09-09T12:57:39;11.02;;;5.50;;
40489;SDS011;26196;52.302;10.572;2022-09-09T13:01:40;10.00;;;4.68;;
40489;SDS011;26196;52.302;10.572;2022-09-09T13:05:41;11.07;;;4.57;;
40489;SDS011;26196;52.302;10.572;2022-09-09T13:09:43;8.57;;;3.83;;
40489;SDS011;26196;52.302;10.572;2022-09-09T13:13:49;5.97;;;3.42;;
40489;SDS011;26196;52.302;10.572;2022-09-09T13:18:02;6.88;;;3.50;;
40489;SDS011;26196;52.302;10.572;2022-09-09T13:22:54;6.43;;;3.00;;
40489;SDS011;26196;52.302;10.572;2022-09-09T13:26:37;12.02;;;4.07;;
40489;SDS011;26196;52.302;10.572;2022-09-09T13:30:38;7.22;;;1.88;;
40489;SDS011;26196;52.302;10.572;2022-09-09T13:34:49;9.05;;;1.80;;
40489;SDS011;26196;52.302;10.572;2022-09-09T13:39:02;5.97;;;1.80;;
40489;SDS011;26196;52.302;10.572;2022-09-09T13:43:04;13.57;;;2.08;;
40489;SDS011;26196;52.302;10.572;2022-09-09T13:47:06;7.90;;;1.60;;
40489;SDS011;26196;52.302;10.572;2022-09-09T13:52:02;9.55;;;2.03;;
40489;SDS011;26196;52.302;10.572;2022-09-09T13:55:49;5.25;;;1.60;;
40489;SDS011;26196;52.302;10.572;2022-09-09T13:59:53;7.35;;;1.65;;
40489;SDS011;26196;52.302;10.572;2022-09-09T14:08:53;7.53;;;2.17;;
40489;SDS011;26196;52.302;10.572;2022-09-09T14:12:54;4.90;;;1.90;;
40489;SDS011;26196;52.302;10.572;2022-09-09T14:16:56;5.60;;;1.40;;
40489;SDS011;26196;52.302;10.572;2022-09-09T14:20:56;8.00;;;1.42;;
40489;SDS011;26196;52.302;10.572;2022-09-09T14:29:55;5.78;;;1.70;;
40489;SDS011;26196;52.302;10.572;2022-09-09T14:33:56;4.60;;;1.50;;
40489;SDS011;26196;52.302;10.572;2022-09-09T14:37:57;5.28;;;1.50;;
40489;SDS011;26196;52.302;10.572;2022-09-09T14:41:58;8.27;;;2.35;;
40489;SDS011;26196;52.302;10.572;2022-09-09T14:46:08;4.72;;;1.02;;
40489;SDS011;26196;52.302;10.572;2022-09-09T14:50:14;3.97;;;0.77;;
40489;SDS011;26196;52.302;10.572;2022-09-09T14:54:15;2.75;;;0.70;;
40489;SDS011;26196;52.302;10.572;2022-09-09T14:58:16;5.75;;;1.05;;
40489;SDS011;26196;52.302;10.572;2022-09-09T15:02:17;4.45;;;1.58;;
40489;SDS011;26196;52.302;10.572;2022-09-09T15:06:18;3.83;;;1.20;;
40489;SDS011;26196;52.302;10.572;2022-09-09T15:10:20;5.18;;;1.30;;
40489;SDS011;26196;52.302;10.572;2022-09-09T15:14:21;4.32;;;0.93;;
40489;SDS011;26196;52.302;10.572;2022-09-09T15:18:22;3.85;;;1.60;;
40489;SDS011;26196;52.302;10.572;2022-09-09T15:22:23;7.50;;;1.40;;
40489;SDS011;26196;52.302;10.572;2022-09-09T15:26:24;7.93;;;1.15;;
40489;SDS011;26196;52.302;10.572;2022-09-09T15:30:27;3.92;;;1.15;;
40489;SDS011;26196;52.302;10.572;2022-09-09T15:34:28;4.15;;;1.55;;
40489;SDS011;26196;52.302;10.572;2022-09-09T15:38:30;2.95;;;1.00;;
40489;SDS011;26196;52.302;10.572;2022-09-09T15:42:31;10.52;;;3.20;;
40489;SDS011;26196;52.302;10.572;2022-09-09T15:46:32;4.13;;;1.35;;
40489;SDS011;26196;52.302;10.572;2022-09-09T15:50:37;3.43;;;1.13;;
40489;SDS011;26196;52.302;10.572;2022-09-09T15:59:34;3.95;;;1.00;;
40489;SDS011;26196;52.302;10.572;2022-09-09T16:08:18;11.52;;;1.35;;
40489;SDS011;26196;52.302;10.572;2022-09-09T16:12:19;6.07;;;0.90;;
40489;SDS011;26196;52.302;10.572;2022-09-09T16:16:21;6.22;;;1.60;;
40489;SDS011;26196;52.302;10.572;2022-09-09T16:20:24;4.40;;;0.88;;
40489;SDS011;26196;52.302;10.572;2022-09-09T16:24:25;4.28;;;0.98;;
40489;SDS011;26196;52.302;10.572;2022-09-09T16:28:26;3.60;;;0.95;;
40489;SDS011;26196;52.302;10.572;2022-09-09T16:32:28;2.03;;;0.60;;
40489;SDS011;26196;52.302;10.572;2022-09-09T16:36:30;5.03;;;0.88;;
40489;SDS011;26196;52.302;10.572;2022-09-09T16:44:37;2.05;;;0.70;;
40489;SDS011;26196;52.302;10.572;2022-09-09T16:48:38;5.68;;;1.73;;
40489;SDS011;26196;52.302;10.572;2022-09-09T16:52:38;4.18;;;0.82;;
40489;SDS011;26196;52.302;10.572;2022-09-09T16:56:40;6.07;;;0.70;;
40489;SDS011;26196;52.302;10.572;2022-09-09T17:00:42;1.52;;;0.45;;
40489;SDS011;26196;52.302;10.572;2022-09-09T17:04:43;3.75;;;0.75;;
40489;SDS011;26196;52.302;10.572;2022-09-09T17:08:43;5.30;;;1.45;;
40489;SDS011;26196;52.302;10.572;2022-09-09T17:12:43;4.40;;;0.68;;
40489;SDS011;26196;52.302;10.572;2022-09-09T17:16:44;3.55;;;0.73;;
40489;SDS011;26196;52.302;10.572;2022-09-09T17:20:46;3.60;;;0.57;;
40489;SDS011;26196;52.302;10.572;2022-09-09T17:24:47;3.95;;;0.68;;
40489;SDS011;26196;52.302;10.572;2022-09-09T17:28:47;12.00;;;1.25;;
40489;SDS011;26196;52.302;10.572;2022-09-09T17:32:47;5.50;;;1.13;;
40489;SDS011;26196;52.302;10.572;2022-09-09T17:36:48;6.43;;;0.90;;
40489;SDS011;26196;52.302;10.572;2022-09-09T17:40:48;6.97;;;0.93;;
40489;SDS011;26196;52.302;10.572;2022-09-09T17:44:49;3.13;;;0.68;;
40489;SDS011;26196;52.302;10.572;2022-09-09T17:48:52;5.85;;;0.90;;
40489;SDS011;26196;52.302;10.572;2022-09-09T17:56:56;7.85;;;1.17;;
40489;SDS011;26196;52.302;10.572;2022-09-09T18:01:05;5.55;;;0.80;;
40489;SDS011;26196;52.302;10.572;2022-09-09T18:05:07;4.72;;;0.60;;
40489;SDS011;26196;52.302;10.572;2022-09-09T18:09:10;2.72;;;0.82;;
40489;SDS011;26196;52.302;10.572;2022-09-09T18:13:12;6.45;;;0.80;;
40489;SDS011;26196;52.302;10.572;2022-09-09T18:17:12;9.98;;;1.45;;
40489;SDS011;26196;52.302;10.572;2022-09-09T18:21:13;4.57;;;0.55;;
40489;SDS011;26196;52.302;10.572;2022-09-09T18:25:13;8.02;;;1.30;;
40489;SDS011;26196;52.302;10.572;2022-09-09T18:29:15;5.90;;;0.80;;
40489;SDS011;26196;52.302;10.572;2022-09-09T18:33:18;2.55;;;0.80;;
40489;SDS011;26196;52.302;10.572;2022-09-09T18:37:19;1.65;;;0.50;;
40489;SDS011;26196;52.302;10.572;2022-09-09T18:41:26;3.80;;;0.70;;
40489;SDS011;26196;52.302;10.572;2022-09-09T18:45:29;4.45;;;0.80;;
40489;SDS011;26196;52.302;10.572;2022-09-09T18:49:30;4.65;;;0.73;;
40489;SDS011;26196;52.302;10.572;2022-09-09T18:53:32;5.28;;;0.55;;
40489;SDS011;26196;52.302;10.572;2022-09-09T18:57:33;1.35;;;0.50;;
40489;SDS011;26196;52.302;10.572;2022-09-09T19:01:34;2.83;;;0.35;;
40489;SDS011;26196;52.302;10.572;2022-09-09T19:05:35;2.10;;;0.63;;
40489;SDS011;26196;52.302;10.572;2022-09-09T19:09:36;1.45;;;0.40;;
40489;SDS011;26196;52.302;10.572;2022-09-09T19:13:36;1.20;;;0.40;;
40489;SDS011;26196;52.302;10.572;2022-09-09T19:17:37;4.93;;;1.95;;
40489;SDS011;26196;52.302;10.572;2022-09-09T19:21:38;1.77;;;0.50;;
40489;SDS011;26196;52.302;10.572;2022-09-09T19:25:41;3.40;;;0.85;;
40489;SDS011;26196;52.302;10.572;2022-09-09T19:29:41;1.17;;;0.40;;
40489;SDS011;26196;52.302;10.572;2022-09-09T19:33:44;1.17;;;0.55;;
40489;SDS011;26196;52.302;10.572;2022-09-09T19:37:46;3.33;;;0.50;;
40489;SDS011;26196;52.302;10.572;2022-09-09T19:41:46;2.58;;;0.70;;
40489;SDS011;26196;52.302;10.572;2022-09-09T19:45:57;1.05;;;0.80;;
40489;SDS011;26196;52.302;10.572;2022-09-09T19:50:01;1.98;;;0.60;;
40489;SDS011;26196;52.302;10.572;2022-09-09T19:54:05;2.80;;;0.70;;
40489;SDS011;26196;52.302;10.572;2022-09-09T19:58:08;0.70;;;0.40;;
40489;SDS011;26196;52.302;10.572;2022-09-09T20:02:10;2.75;;;0.50;;
40489;SDS011;26196;52.302;10.572;2022-09-09T20:06:13;2.00;;;0.73;;
40489;SDS011;26196;52.302;10.572;2022-09-09T20:10:16;1.98;;;0.40;;
40489;SDS011;26196;52.302;10.572;2022-09-09T20:14:16;2.03;;;0.50;;
40489;SDS011;26196;52.302;10.572;2022-09-09T20:18:17;1.75;;;0.70;;
40489;SDS011;26196;52.302;10.572;2022-09-09T20:22:17;2.15;;;0.50;;
40489;SDS011;26196;52.302;10.572;2022-09-09T20:26:21;1.90;;;0.60;;
40489;SDS011;26196;52.302;10.572;2022-09-09T20:30:25;3.67;;;0.70;;
40489;SDS011;26196;52.302;10.572;2022-09-09T20:34:25;0.95;;;0.52;;
40489;SDS011;26196;52.302;10.572;2022-09-09T20:38:27;1.55;;;0.50;;
40489;SDS011;26196;52.302;10.572;2022-09-09T20:42:27;0.90;;;0.40;;
40489;SDS011;26196;52.302;10.572;2022-09-09T20:46:31;3.25;;;0.50;;
40489;SDS011;26196;52.302;10.572;2022-09-09T20:50:35;3.15;;;0.45;;
40489;SDS011;26196;52.302;10.572;2022-09-09T20:54:35;2.22;;;1.48;;
40489;SDS011;26196;52.302;10.572;2022-09-09T20:58:37;2.10;;;0.55;;
40489;SDS011;26196;52.302;10.572;2022-09-09T21:02:38;3.10;;;1.33;;
40489;SDS011;26196;52.302;10.572;2022-09-09T21:06:38;1.67;;;0.60;;
40489;SDS011;26196;52.302;10.572;2022-09-09T21:10:42;3.20;;;0.68;;
40489;SDS011;26196;52.302;10.572;2022-09-09T21:14:45;2.15;;;0.60;;
40489;SDS011;26196;52.302;10.572;2022-09-09T21:18:46;0.95;;;0.40;;
40489;SDS011;26196;52.302;10.572;2022-09-09T21:22:47;2.90;;;0.65;;
40489;SDS011;26196;52.302;10.572;2022-09-09T21:26:48;1.23;;;0.57;;
40489;SDS011;26196;52.302;10.572;2022-09-09T21:30:49;0.88;;;0.50;;
40489;SDS011;26196;52.302;10.572;2022-09-09T21:34:51;2.17;;;0.60;;
40489;SDS011;26196;52.302;10.572;2022-09-09T21:38:52;2.03;;;0.65;;
40489;SDS011;26196;52.302;10.572;2022-09-09T21:42:52;0.70;;;0.32;;
40489;SDS011;26196;52.302;10.572;2022-09-09T21:46:53;2.58;;;0.60;;
40489;SDS011;26196;52.302;10.572;2022-09-09T21:50:53;1.23;;;0.60;;
40489;SDS011;26196;52.302;10.572;2022-09-09T21:54:54;0.65;;;0.45;;
40489;SDS011;26196;52.302;10.572;2022-09-09T21:58:55;2.00;;;0.82;;
40489;SDS011;26196;52.302;10.572;2022-09-09T22:02:57;1.15;;;0.40;;
40489;SDS011;26196;52.302;10.572;2022-09-09T22:06:58;2.10;;;0.52;;
40489;SDS011;26196;52.302;10.572;2022-09-09T22:11:05;0.77;;;0.40;;
40489;SDS011;26196;52.302;10.572;2022-09-09T22:15:07;0.88;;;0.60;;
40489;SDS011;26196;52.302;10.572;2022-09-09T22:19:08;0.82;;;0.40;;
40489;SDS011;26196;52.302;10.572;2022-09-09T22:23:09;1.50;;;0.57;;
40489;SDS011;26196;52.302;10.572;2022-09-09T22:27:13;1.15;;;0.43;;
40489;SDS011;26196;52.302;10.572;2022-09-09T22:31:14;1.27;;;0.40;;
40489;SDS011;26196;52.302;10.572;2022-09-09T22:35:15;0.73;;;0.40;;
40489;SDS011;26196;52.302;10.572;2022-09-09T22:39:16;0.90;;;0.70;;
40489;SDS011;26196;52.302;10.572;2022-09-09T22:43:18;1.95;;;0.60;;
40489;SDS011;26196;52.302;10.572;2022-09-09T22:47:20;1.27;;;0.45;;
40489;SDS011;26196;52.302;10.572;2022-09-09T22:51:21;2.25;;;0.70;;
40489;SDS011;26196;52.302;10.572;2022-09-09T22:55:21;1.15;;;0.55;;
40489;SDS011;26196;52.302;10.572;2022-09-09T22:59:22;1.05;;;0.60;;
40489;SDS011;26196;52.302;10.572;2022-09-09T23:03:22;1.05;;;0.40;;
40489;SDS011;26196;52.302;10.572;2022-09-09T23:07:26;1.95;;;1.38;;
40489;SDS011;26196;52.302;10.572;2022-09-09T23:11:27;1.00;;;0.50;;
40489;SDS011;26196;52.302;10.572;2022-09-09T23:15:30;0.90;;;0.47;;
40489;SDS011;26196;52.302;10.572;2022-09-09T23:19:30;1.02;;;0.63;;
40489;SDS011;26196;52.302;10.572;2022-09-09T23:23:31;1.27;;;0.40;;
40489;SDS011;26196;52.302;10.572;2022-09-09T23:27:32;1.60;;;0.68;;
40489;SDS011;26196;52.302;10.572;2022-09-09T23:31:33;0.98;;;0.40;;
40489;SDS011;26196;52.302;10.572;2022-09-09T23:35:37;0.43;;;0.40;;
40489;SDS011;26196;52.302;10.572;2022-09-09T23:39:38;0.75;;;0.50;;
40489;SDS011;26196;52.302;10.572;2022-09-09T23:43:41;1.13;;;0.55;;
40489;SDS011;26196;52.302;10.572;2022-09-09T23:47:42;0.77;;;0.40;;
40489;SDS011;26196;52.302;10.572;2022-09-09T23:51:43;1.08;;;0.55;;
40489;SDS011;26196;52.302;10.572;2022-09-09T23:55:43;0.73;;;0.43;;
40489;SDS011;26196;52.302;10.572;2022-09-09T23:59:43;1.42;;;0.40;;
